Time;durP1;ratioP1;P1;durP2;ratioP2;P2;SDS_P1;SDS_P2;PMS_P1;PMS_P2;Temp;Humidity;BMP_temperature;BMP_pressure;BME280_temperature;BME280_humidity;BME280_pressure;Samples;Min_cycle;Max_cycle;Signal;HPM_P1;HPM_P2
2022/09/16 00:02:16;;;;;;;15.10;1.40;;;;;;;14.83;62.81;100985.25;5030365;28;20028;-78
2022/09/16 00:04:41;;;;;;;13.80;1.60;;;;;;;14.86;63.41;100998.38;5031059;28;20069;-79
2022/09/16 00:07:07;;;;;;;11.10;1.23;;;;;;;14.81;64.26;100986.50;5031536;28;20061;-78
2022/09/16 00:09:32;;;;;;;8.07;1.10;;;;;;;14.81;65.98;100986.50;5031479;28;20108;-78
2022/09/16 00:12:00;;;;;;;9.05;1.02;;;;;;;14.78;68.16;101001.28;5045417;28;20037;-76
2022/09/16 00:14:26;;;;;;;18.95;1.73;;;;;;;14.70;68.60;100998.78;5024845;28;20087;-78
2022/09/16 00:16:51;;;;;;;19.35;1.73;;;;;;;14.62;67.85;100988.13;5027790;28;20152;-76
2022/09/16 00:19:16;;;;;;;8.93;0.93;;;;;;;14.56;68.06;101011.44;5029703;28;20025;-76
2022/09/16 00:21:42;;;;;;;8.00;1.30;;;;;;;14.52;69.05;101020.97;5028788;28;20267;-76
2022/09/16 00:24:12;;;;;;;16.58;1.30;;;;;;;14.41;70.46;101006.16;5028844;28;20034;-76
2022/09/16 00:26:38;;;;;;;14.32;1.38;;;;;;;14.34;70.56;101007.16;5027975;28;20029;-77
2022/09/16 00:29:04;;;;;;;13.10;1.20;;;;;;;14.22;71.44;100996.94;5023255;28;20022;-78
2022/09/16 00:31:29;;;;;;;14.25;1.40;;;;;;;14.11;72.24;101004.78;5023304;28;20442;-77
2022/09/16 00:33:54;;;;;;;13.98;1.40;;;;;;;14.05;72.77;101001.00;5029858;28;20060;-76
2022/09/16 00:36:20;;;;;;;15.25;0.88;;;;;;;13.98;73.73;100986.59;5026795;28;20033;-77
2022/09/16 00:38:50;;;;;;;12.38;1.05;;;;;;;13.96;74.79;100986.00;5029938;28;20116;-76
2022/09/16 00:41:18;;;;;;;14.52;1.17;;;;;;;13.98;74.86;100997.41;5032251;28;20025;-77
2022/09/16 00:43:57;;;;;;;14.85;1.40;;;;;;;13.95;75.13;100987.00;5031392;28;20436;-78
2022/09/16 00:46:33;;;;;;;9.02;1.00;;;;;;;13.95;74.60;100987.00;5020998;28;20029;-77
2022/09/16 00:49:08;;;;;;;10.65;0.90;;;;;;;14.00;74.98;100989.94;4998978;28;20029;-78
2022/09/16 00:51:33;;;;;;;11.05;1.30;;;;;;;14.03;75.43;100989.53;5013796;28;20021;-78
2022/09/16 00:54:02;;;;;;;8.75;1.23;;;;;;;14.08;75.77;100992.47;5015426;28;20022;-77
2022/09/16 00:56:30;;;;;;;5.88;1.02;;;;;;;14.13;76.42;100994.59;5013774;28;20497;-76
2022/09/16 00:59:02;;;;;;;22.05;1.55;;;;;;;14.20;76.72;100996.28;5013891;28;20022;-77
2022/09/16 01:01:29;;;;;;;14.02;1.23;;;;;;;14.26;76.50;100998.19;4982438;28;20026;-77
2022/09/16 01:03:59;;;;;;;19.27;1.40;;;;;;;14.22;76.99;100991.50;5014091;28;20468;-76
2022/09/16 01:06:25;;;;;;;28.90;3.10;;;;;;;14.09;80.10;100988.75;5041607;28;20037;-77
2022/09/16 01:08:51;;;;;;;17.50;1.65;;;;;;;13.88;82.92;101005.94;5039502;28;20037;-76
2022/09/16 01:11:16;;;;;;;26.73;2.25;;;;;;;13.66;86.97;101009.72;5021358;28;20455;-74
2022/09/16 01:13:42;;;;;;;27.90;2.75;;;;;;;13.44;88.77;101008.97;5040398;28;20029;-78
2022/09/16 01:16:09;;;;;;;22.63;1.85;;;;;;;13.22;89.23;101000.88;5037390;28;20077;-79
2022/09/16 01:18:43;;;;;;;13.63;1.57;;;;;;;13.05;89.50;101005.69;5047059;28;20041;-76
2022/09/16 01:21:49;;;;;;;20.48;1.65;;;;;;;12.84;90.36;101005.72;5046594;28;20300;-76
2022/09/16 01:24:28;;;;;;;19.55;2.05;;;;;;;12.67;91.35;101007.84;5016438;28;20045;-77
2022/09/16 01:27:27;;;;;;;10.70;1.38;;;;;;;12.60;92.64;101009.63;5018957;28;20029;-78
2022/09/16 01:30:07;;;;;;;31.75;1.70;;;;;;;12.45;93.20;101007.81;5024488;28;20040;-77
2022/09/16 01:33:00;;;;;;;19.42;1.38;;;;;;;12.43;93.83;101015.25;5013653;28;20385;-77
2022/09/16 01:35:35;;;;;;;15.45;1.23;;;;;;;12.42;94.49;101015.44;5018771;28;20025;-78
2022/09/16 01:38:45;;;;;;;20.63;1.85;;;;;;;12.39;94.01;101013.94;5015445;28;20473;-78
2022/09/16 01:41:27;;;;;;;19.27;2.15;;;;;;;12.40;93.09;101023.75;4994818;28;20553;-78
2022/09/16 01:44:03;;;;;;;26.23;1.38;;;;;;;12.42;92.98;101027.06;5032814;28;20528;-78
2022/09/16 01:46:43;;;;;;;18.70;1.10;;;;;;;12.48;92.81;101020.94;5018026;28;20032;-79
2022/09/16 01:49:33;;;;;;;22.38;1.75;;;;;;;12.52;93.47;101022.19;5035957;28;20414;-79
2022/09/16 01:52:24;;;;;;;19.85;1.17;;;;;;;12.56;92.73;101024.50;5021736;28;20030;-78
2022/09/16 01:54:59;;;;;;;27.10;1.67;;;;;;;12.56;91.49;101019.13;5034257;28;20029;-79
2022/09/16 01:57:35;;;;;;;15.10;1.38;;;;;;;12.63;91.64;101017.34;5017873;28;20489;-79
2022/09/16 02:00:07;;;;;;;19.83;1.30;;;;;;;12.62;91.08;101011.09;5032519;28;20147;-80
2022/09/16 02:02:36;;;;;;;19.92;1.63;;;;;;;12.59;90.62;101007.97;5015313;28;20484;-78
2022/09/16 02:05:06;;;;;;;17.13;1.42;;;;;;;12.65;90.40;101012.59;5027094;28;20038;-83
2022/09/16 02:07:36;;;;;;;12.45;1.25;;;;;;;12.69;90.97;101013.84;5030358;28;20050;-84
2022/09/16 02:10:11;;;;;;;22.05;1.35;;;;;;;12.67;90.87;100999.72;5023029;28;20087;-82
2022/09/16 02:12:40;;;;;;;15.05;1.10;;;;;;;12.69;89.23;101013.84;5016395;28;20457;-83
2022/09/16 02:15:08;;;;;;;11.38;1.10;;;;;;;12.80;89.24;101029.56;5009999;28;20506;-82
2022/09/16 02:17:37;;;;;;;12.15;1.30;;;;;;;12.85;88.70;101034.38;5010328;28;20029;-83
2022/09/16 02:20:08;;;;;;;14.32;0.70;;;;;;;12.86;86.99;101036.06;5014184;28;20033;-82
2022/09/16 02:22:38;;;;;;;8.77;0.82;;;;;;;12.78;87.54;101033.50;5005424;28;20025;-78
2022/09/16 02:25:04;;;;;;;16.98;1.20;;;;;;;12.63;87.33;101028.13;5049721;28;20057;-79
2022/09/16 02:27:30;;;;;;;5.07;0.88;;;;;;;12.44;86.38;101025.00;5049104;28;20038;-78
2022/09/16 02:30:01;;;;;;;9.13;0.70;;;;;;;12.35;86.87;101023.47;5026543;28;20392;-78
2022/09/16 02:32:27;;;;;;;10.40;0.77;;;;;;;12.25;87.00;101015.66;5029589;28;20025;-78
2022/09/16 02:34:54;;;;;;;14.40;1.30;;;;;;;12.19;88.14;101020.97;5015119;28;20029;-78
2022/09/16 02:37:27;;;;;;;7.03;1.00;;;;;;;12.15;88.95;101019.69;5013837;28;20044;-78
2022/09/16 02:39:54;;;;;;;15.50;0.95;;;;;;;12.10;88.84;101020.22;5025422;28;20048;-80
2022/09/16 02:42:19;;;;;;;2.50;0.95;;;;;;;12.15;89.68;101025.91;5014932;28;20107;-80
2022/09/16 02:44:45;;;;;;;10.57;1.05;;;;;;;12.17;89.77;101014.94;5027940;28;20470;-80
2022/09/16 02:47:50;;;;;;;12.38;1.15;;;;;;;12.19;90.25;101023.66;4996646;28;20042;-78
2022/09/16 02:50:24;;;;;;;15.23;1.08;;;;;;;12.20;90.58;101019.94;5015788;28;20095;-79
2022/09/16 02:52:56;;;;;;;21.60;1.30;;;;;;;12.22;90.74;101007.94;5033099;28;20029;-78
2022/09/16 02:55:31;;;;;;;10.50;1.40;;;;;;;12.26;90.77;101008.41;5028686;28;20041;-78
2022/09/16 02:57:56;;;;;;;17.77;1.23;;;;;;;12.24;90.14;101002.34;5038488;28;20209;-79
2022/09/16 03:00:22;;;;;;;16.00;1.02;;;;;;;12.26;89.93;101008.41;5024676;28;20518;-79
2022/09/16 03:02:48;;;;;;;9.40;1.10;;;;;;;12.31;89.08;101005.97;5013960;28;20056;-80
2022/09/16 03:05:13;;;;;;;19.13;1.50;;;;;;;12.30;88.66;101001.59;5031545;28;20034;-81
2022/09/16 03:07:39;;;;;;;7.07;0.85;;;;;;;12.29;89.33;100994.53;5014080;28;20555;-80
2022/09/16 03:10:05;;;;;;;15.35;1.25;;;;;;;12.29;89.54;100986.41;5032067;28;20029;-81
2022/09/16 03:12:59;;;;;;;25.20;1.42;;;;;;;12.32;89.49;100986.03;5014736;28;20033;-81
2022/09/16 03:15:41;;;;;;;15.32;1.10;;;;;;;12.35;89.81;100979.44;5015351;28;20060;-81
2022/09/16 03:18:40;;;;;;;17.98;1.38;;;;;;;12.35;89.84;100980.28;5032232;28;20033;-79
2022/09/16 03:21:44;;;;;;;12.18;1.17;;;;;;;12.47;90.09;100986.84;5032345;28;20091;-80
2022/09/16 03:24:18;;;;;;;21.83;2.15;;;;;;;12.60;90.18;100996.13;5013961;28;20029;-79
2022/09/16 03:26:52;;;;;;;14.13;1.38;;;;;;;12.70;89.94;100993.94;5014589;28;20393;-81
2022/09/16 03:29:18;;;;;;;15.57;1.02;;;;;;;12.74;89.16;101001.47;5018127;28;20462;-81
2022/09/16 03:31:56;;;;;;;20.42;2.17;;;;;;;12.63;87.83;101003.84;5035004;28;20116;-80
2022/09/16 03:34:38;;;;;;;14.38;1.33;;;;;;;12.52;89.17;101008.69;5034570;28;20025;-81
2022/09/16 03:37:07;;;;;;;10.77;1.05;;;;;;;12.45;88.32;100990.75;5016237;28;20029;-82
2022/09/16 03:39:32;;;;;;;19.80;1.38;;;;;;;12.48;87.09;100991.22;5027926;28;20083;-79
2022/09/16 03:42:07;;;;;;;9.82;1.15;;;;;;;12.56;84.50;100984.00;5034627;28;20072;-80
2022/09/16 03:44:33;;;;;;;20.67;1.20;;;;;;;12.62;82.98;100991.38;5010872;28;20025;-81
2022/09/16 03:46:59;;;;;;;18.13;1.38;;;;;;;12.67;80.93;100991.63;5030904;28;20088;-80
2022/09/16 03:49:24;;;;;;;6.93;1.17;;;;;;;12.74;80.78;101001.47;5032182;28;20033;-81
2022/09/16 03:51:49;;;;;;;12.18;2.20;;;;;;;12.76;81.67;100990.47;5031292;28;20057;-81
2022/09/16 03:54:15;;;;;;;21.48;1.23;;;;;;;12.81;82.34;101004.22;5012605;28;20018;-81
2022/09/16 03:56:40;;;;;;;11.25;1.38;;;;;;;12.83;82.99;100999.47;5029357;28;20034;-81
2022/09/16 03:59:05;;;;;;;14.82;1.30;;;;;;;12.80;84.27;100994.47;5028482;28;20032;-80
2022/09/16 04:01:31;;;;;;;19.42;1.60;;;;;;;12.73;84.75;100986.28;5006967;28;20033;-80
2022/09/16 04:03:56;;;;;;;23.88;1.73;;;;;;;12.70;85.39;100999.34;5031607;28;20028;-80
2022/09/16 04:06:21;;;;;;;15.18;1.88;;;;;;;12.66;85.92;101001.56;5025389;28;20128;-81
2022/09/16 04:08:49;;;;;;;18.38;1.25;;;;;;;12.63;87.43;100990.34;5029204;28;20025;-81
2022/09/16 04:11:15;;;;;;;15.90;1.95;;;;;;;12.59;88.14;100979.09;5029895;28;20381;-82
2022/09/16 04:13:40;;;;;;;23.13;2.05;;;;;;;12.57;87.34;100977.59;5029807;28;20369;-81
2022/09/16 04:16:06;;;;;;;17.35;1.48;;;;;;;12.59;86.37;100983.66;5033940;28;20029;-81
2022/09/16 04:18:33;;;;;;;10.73;1.50;;;;;;;12.56;84.70;100982.19;5016229;28;20108;-82
2022/09/16 04:21:00;;;;;;;22.75;2.08;;;;;;;12.69;83.61;100976.06;5034951;28;20477;-79
2022/09/16 04:23:26;;;;;;;13.85;1.70;;;;;;;12.71;84.08;100969.44;5033131;28;20025;-81
2022/09/16 04:26:01;;;;;;;20.23;1.52;;;;;;;12.73;82.71;100983.59;5031590;28;20200;-81
2022/09/16 04:28:29;;;;;;;17.30;2.13;;;;;;;12.79;82.80;100976.56;5026659;28;20055;-81
2022/09/16 04:30:58;;;;;;;21.40;2.33;;;;;;;12.87;81.77;100973.72;5034858;28;20034;-79
2022/09/16 04:33:27;;;;;;;14.18;1.30;;;;;;;13.03;78.75;100963.69;5034159;28;20025;-80
2022/09/16 04:35:52;;;;;;;23.25;1.55;;;;;;;13.12;77.80;100971.47;5034653;28;20765;-80
2022/09/16 04:38:17;;;;;;;14.70;1.27;;;;;;;13.20;75.13;100978.59;5032041;28;20163;-79
2022/09/16 04:40:43;;;;;;;19.90;2.38;;;;;;;13.22;75.38;100976.53;5026012;28;20087;-79
2022/09/16 04:43:08;;;;;;;16.23;1.10;;;;;;;13.21;74.04;100984.84;5030400;28;20112;-79
2022/09/16 04:45:33;;;;;;;11.65;1.25;;;;;;;13.21;73.09;100980.25;5013180;28;20059;-79
2022/09/16 04:47:59;;;;;;;10.80;1.70;;;;;;;13.16;73.88;100980.00;5015070;28;20033;-79
2022/09/16 04:50:24;;;;;;;14.27;1.58;;;;;;;13.06;73.43;100974.09;5026206;28;20346;-78
2022/09/16 04:52:50;;;;;;;14.48;1.23;;;;;;;13.05;72.64;100973.28;5031202;28;20033;-78
2022/09/16 04:55:17;;;;;;;18.23;1.42;;;;;;;13.13;73.17;100977.69;5025693;28;20026;-79
2022/09/16 04:57:42;;;;;;;17.50;2.50;;;;;;;13.14;75.24;100979.41;5030243;28;20100;-79
2022/09/16 05:00:08;;;;;;;14.48;1.75;;;;;;;13.15;76.37;100983.75;5033730;28;20112;-79
2022/09/16 05:02:33;;;;;;;17.23;1.58;;;;;;;13.15;75.81;100981.06;5015859;28;20037;-80
2022/09/16 05:04:59;;;;;;;19.17;1.58;;;;;;;13.13;75.60;100988.50;5015796;28;20030;-80
2022/09/16 05:07:24;;;;;;;12.35;1.80;;;;;;;13.12;75.67;100987.69;5031804;28;20350;-79
2022/09/16 05:09:49;;;;;;;19.73;1.58;;;;;;;13.09;75.74;100984.53;5033676;28;20603;-80
2022/09/16 05:12:15;;;;;;;21.23;1.35;;;;;;;13.02;75.33;100986.34;5032917;28;20033;-79
2022/09/16 05:14:40;;;;;;;16.00;1.75;;;;;;;13.01;74.92;100984.69;5032657;28;20029;-80
2022/09/16 05:17:06;;;;;;;18.88;2.13;;;;;;;13.06;75.03;100984.91;5033589;28;20104;-79
2022/09/16 05:19:31;;;;;;;17.75;1.50;;;;;;;13.12;75.48;100981.44;5033068;28;20030;-80
2022/09/16 05:21:57;;;;;;;15.13;1.65;;;;;;;13.16;76.00;100988.13;5033010;28;20033;-80
2022/09/16 05:24:22;;;;;;;38.60;2.97;;;;;;;13.18;76.79;100991.47;5032622;28;20060;-80
2022/09/16 05:26:47;;;;;;;21.40;1.77;;;;;;;13.22;76.77;100998.16;5032347;28;20030;-80
2022/09/16 05:29:15;;;;;;;13.48;1.60;;;;;;;13.29;77.41;101006.34;5033353;28;20087;-80
2022/09/16 05:31:42;;;;;;;20.88;1.42;;;;;;;13.34;76.94;101002.03;5033080;28;20029;-79
2022/09/16 05:34:20;;;;;;;15.05;1.50;;;;;;;13.31;74.59;101007.81;5031685;28;20658;-79
2022/09/16 05:36:46;;;;;;;15.38;1.38;;;;;;;13.34;73.71;101002.03;5031368;28;20029;-80
2022/09/16 05:39:13;;;;;;;7.38;1.02;;;;;;;13.34;72.37;101004.72;5032590;28;20033;-78
2022/09/16 05:41:38;;;;;;;11.13;0.90;;;;;;;13.29;70.84;101007.19;5014678;28;20037;-80
2022/09/16 05:44:07;;;;;;;11.50;1.60;;;;;;;13.28;71.54;101004.69;5033914;28;20040;-81
2022/09/16 05:46:33;;;;;;;31.20;2.60;;;;;;;13.32;71.20;100998.69;5032246;28;20033;-79
2022/09/16 05:48:59;;;;;;;18.33;1.40;;;;;;;13.38;71.64;101024.94;5044624;28;20026;-79
2022/09/16 05:51:25;;;;;;;19.23;2.67;;;;;;;13.38;71.17;101014.13;5051012;28;20048;-79
2022/09/16 05:53:51;;;;;;;29.17;2.15;;;;;;;13.31;71.87;101015.94;5052737;28;20036;-79
2022/09/16 05:56:21;;;;;;;19.73;1.75;;;;;;;13.18;72.88;101015.78;5026172;28;20087;-81
2022/09/16 05:58:47;;;;;;;17.67;1.55;;;;;;;13.10;71.59;101018.63;5022060;28;20033;-79
2022/09/16 06:01:14;;;;;;;19.17;1.40;;;;;;;13.04;72.42;101022.94;5034805;28;20056;-80
2022/09/16 06:03:40;;;;;;;10.90;1.20;;;;;;;12.91;72.99;101029.06;5029498;28;20029;-79
2022/09/16 06:06:10;;;;;;;22.25;2.20;;;;;;;12.80;74.08;101026.03;5013115;28;20030;-79
2022/09/16 06:08:36;;;;;;;10.18;1.35;;;;;;;12.76;73.96;101022.88;5011816;28;20049;-79
2022/09/16 06:11:03;;;;;;;19.25;1.63;;;;;;;12.68;74.10;101020.28;5012750;28;20032;-79
2022/09/16 06:13:29;;;;;;;31.60;1.88;;;;;;;12.63;75.41;101020.03;5014513;28;20494;-79
2022/09/16 06:15:54;;;;;;;12.68;1.10;;;;;;;12.62;75.22;101018.38;5022076;28;20063;-79
2022/09/16 06:18:21;;;;;;;11.60;1.60;;;;;;;12.63;75.69;101025.44;5017837;28;20025;-79
2022/09/16 06:20:47;;;;;;;31.52;2.17;;;;;;;12.60;75.35;101020.41;5015121;28;20120;-79
2022/09/16 06:23:13;;;;;;;12.73;1.67;;;;;;;12.63;74.71;101020.84;5012439;28;20109;-80
2022/09/16 06:25:38;;;;;;;14.43;1.23;;;;;;;12.67;75.07;101021.34;4995220;28;20022;-79
2022/09/16 06:28:04;;;;;;;16.10;1.50;;;;;;;12.72;75.34;101024.31;5012647;28;20033;-78
2022/09/16 06:30:30;;;;;;;16.05;1.67;;;;;;;12.80;74.67;101026.03;4997388;28;20030;-79
2022/09/16 06:32:55;;;;;;;17.38;2.20;;;;;;;12.94;74.39;101017.03;5010215;28;20029;-77
2022/09/16 06:35:20;;;;;;;14.45;1.20;;;;;;;13.13;72.21;101024.47;5030167;28;20029;-78
2022/09/16 06:37:46;;;;;;;8.38;1.25;;;;;;;13.28;72.71;101027.13;5031515;28;20341;-79
2022/09/16 06:40:11;;;;;;;11.40;1.67;;;;;;;13.38;71.57;101016.81;5012300;28;20116;-79
2022/09/16 06:42:36;;;;;;;12.18;1.50;;;;;;;13.54;71.46;101022.97;5031972;28;20042;-79
2022/09/16 06:45:03;;;;;;;20.17;2.15;;;;;;;13.87;71.76;101028.59;5027405;28;20017;-78
2022/09/16 06:47:32;;;;;;;12.52;1.27;;;;;;;14.61;69.05;101025.22;5032339;28;20124;-79
2022/09/16 06:49:58;;;;;;;11.40;1.30;;;;;;;15.86;65.40;101027.38;5031961;28;20036;-78
2022/09/16 06:52:24;;;;;;;10.80;1.17;;;;;;;16.85;61.28;101018.81;5031676;28;20021;-79
2022/09/16 06:54:49;;;;;;;13.52;1.17;;;;;;;17.77;56.47;101007.34;5030693;28;20052;-78
2022/09/16 06:57:16;;;;;;;9.75;1.15;;;;;;;18.36;54.49;101015.94;5029871;28;20027;-79
2022/09/16 06:59:42;;;;;;;14.77;1.63;;;;;;;19.14;54.96;101015.03;5030724;28;20029;-79
2022/09/16 07:02:09;;;;;;;14.90;1.77;;;;;;;19.61;53.75;101027.88;5017883;28;20458;-79
2022/09/16 07:04:34;;;;;;;31.27;2.15;;;;;;;19.55;52.45;101045.22;5031304;28;20254;-79
2022/09/16 07:07:00;;;;;;;13.63;1.27;;;;;;;18.71;54.04;101045.22;5013655;28;20045;-79
2022/09/16 07:09:25;;;;;;;19.35;1.90;;;;;;;17.37;59.16;101042.28;5031575;28;20469;-79
2022/09/16 07:11:50;;;;;;;13.45;1.50;;;;;;;16.39;60.82;101047.03;5032954;28;20076;-78
2022/09/16 07:14:16;;;;;;;12.50;1.63;;;;;;;15.25;66.64;101047.41;5041734;28;20132;-79
2022/09/16 07:16:41;;;;;;;21.35;1.73;;;;;;;14.74;71.04;101039.81;5051261;28;20053;-79
2022/09/16 07:19:06;;;;;;;22.02;1.60;;;;;;;14.31;71.17;101026.53;5035566;28;20014;-80
2022/09/16 07:21:32;;;;;;;15.48;1.60;;;;;;;13.93;72.88;101033.22;5055559;28;20052;-78
2022/09/16 07:23:59;;;;;;;13.35;2.55;;;;;;;13.65;74.54;101024.31;5055826;28;20056;-79
2022/09/16 07:26:28;;;;;;;20.07;1.53;;;;;;;13.49;76.20;101030.84;5048840;28;20033;-79
2022/09/16 07:28:54;;;;;;;14.93;2.03;;;;;;;13.31;80.33;101037.56;5040164;28;20349;-79
2022/09/16 07:31:25;;;;;;;22.30;1.92;;;;;;;13.27;81.88;101039.00;5037205;28;20025;-80
2022/09/16 07:33:52;;;;;;;18.48;2.70;;;;;;;13.30;82.68;101035.91;5035024;28;20060;-77
2022/09/16 07:36:21;;;;;;;32.72;4.13;;;;;;;13.45;82.50;101037.66;5017311;28;20033;-79
2022/09/16 07:38:46;;;;;;;34.45;2.40;;;;;;;13.54;82.69;101034.63;5025409;28;20034;-79
2022/09/16 07:41:14;;;;;;;24.55;2.20;;;;;;;14.13;83.85;101038.72;5043617;28;20033;-79
2022/09/16 07:43:41;;;;;;;18.00;1.95;;;;;;;15.51;83.58;101046.59;5037702;28;20034;-79
2022/09/16 07:46:09;;;;;;;11.43;1.50;;;;;;;16.99;75.10;101030.44;5031008;28;20472;-78
2022/09/16 07:48:34;;;;;;;;;;;;;;;17.45;64.55;101031.94;5014693;28;20505;-76
2022/09/16 07:51:02;;;;;;;20.08;1.60;;;;;;;17.81;60.19;101029.56;5034270;28;19913;-79
2022/09/16 07:53:29;;;;;;;18.73;1.67;;;;;;;18.76;58.34;101039.94;5034449;28;20034;-80
2022/09/16 07:55:55;;;;;;;12.10;1.08;;;;;;;19.63;53.46;101047.59;5034924;28;20029;-80
2022/09/16 07:58:21;;;;;;;16.42;1.65;;;;;;;19.27;53.19;101054.91;5001768;28;20520;-76
2022/09/16 08:00:48;;;;;;;17.63;1.80;;;;;;;18.44;55.80;101056.47;5031515;28;20046;-77
2022/09/16 08:03:13;;;;;;;25.00;2.33;;;;;;;17.58;58.07;101074.53;5027076;28;20038;-78
2022/09/16 08:05:39;;;;;;;22.08;1.85;;;;;;;16.69;63.75;101068.19;5037319;28;20063;-76
2022/09/16 08:08:04;;;;;;;27.48;3.20;;;;;;;15.89;67.86;101092.91;5058424;28;20049;-78
2022/09/16 08:10:30;;;;;;;23.80;1.95;;;;;;;15.01;72.16;101094.91;5040401;28;20041;-78
2022/09/16 08:12:55;;;;;;;31.42;2.22;;;;;;;14.41;73.96;101083.84;5052396;28;20029;-79
2022/09/16 08:15:20;;;;;;;13.35;1.83;;;;;;;14.08;75.76;101089.06;5047776;28;20033;-78
2022/09/16 08:17:46;;;;;;;11.00;1.38;;;;;;;13.76;76.20;101086.78;5020989;28;20049;-79
2022/09/16 08:20:11;;;;;;;22.42;2.20;;;;;;;13.53;77.50;101088.88;5035137;28;20032;-81
2022/09/16 08:22:36;;;;;;;23.05;1.90;;;;;;;13.42;78.69;101081.31;5023807;28;20034;-81
2022/09/16 08:25:02;;;;;;;21.90;2.50;;;;;;;13.34;80.48;101083.13;5017060;28;20030;-81
2022/09/16 08:27:29;;;;;;;9.23;1.50;;;;;;;14.18;83.45;101090.38;5026463;28;20021;-80
2022/09/16 08:29:54;;;;;;;30.50;2.40;;;;;;;15.41;82.13;101095.81;5030307;28;20501;-81
2022/09/16 08:32:20;;;;;;;20.58;1.98;;;;;;;17.06;75.91;101101.06;5035146;28;20090;-82
2022/09/16 08:34:45;;;;;;;24.50;1.70;;;;;;;18.83;64.55;101111.59;5030438;28;20030;-78
2022/09/16 08:37:10;;;;;;;15.98;1.80;;;;;;;18.42;63.03;101119.38;5035817;28;20025;-79
2022/09/16 08:39:36;;;;;;;17.05;1.83;;;;;;;17.80;64.09;101120.44;5045272;28;20064;-78
2022/09/16 08:42:15;;;;;;;12.75;1.48;;;;;;;16.93;65.04;101122.88;5045909;28;20033;-79
2022/09/16 08:45:09;;;;;;;10.75;1.20;;;;;;;16.05;67.90;101115.22;5015836;28;20102;-80
2022/09/16 08:47:56;;;;;;;13.13;1.65;;;;;;;15.49;70.39;101113.78;5043146;28;20047;-81
2022/09/16 08:50:25;;;;;;;29.60;2.53;;;;;;;14.93;71.08;101110.34;5046003;28;20073;-81
2022/09/16 08:52:52;;;;;;;21.02;2.25;;;;;;;14.74;73.94;101110.25;5018950;28;20037;-81
2022/09/16 08:55:22;;;;;;;152.95;31.60;;;;;;;14.74;76.91;101116.50;5014994;28;20037;-79
2022/09/16 08:58:07;;;;;;;27.30;2.80;;;;;;;14.96;77.11;101121.81;5000285;28;20029;-81
2022/09/16 09:00:33;;;;;;;28.38;2.60;;;;;;;14.97;77.17;101123.47;4998617;28;20096;-80
2022/09/16 09:03:15;;;;;;;15.82;2.17;;;;;;;14.92;76.87;101133.03;5022749;28;20025;-82
2022/09/16 09:05:55;;;;;;;19.08;1.55;;;;;;;14.81;76.98;101122.78;5014706;28;20120;-81
2022/09/16 09:08:29;;;;;;;22.38;1.83;;;;;;;14.62;78.78;101129.81;5032757;28;20131;-81
2022/09/16 09:11:05;;;;;;;17.80;2.00;;;;;;;14.62;78.29;101129.81;5026530;28;20064;-82
2022/09/16 09:13:49;;;;;;;14.60;1.73;;;;;;;14.48;77.93;101144.28;5024571;28;20026;-81
2022/09/16 09:16:59;;;;;;;19.52;1.48;;;;;;;14.17;78.57;101148.28;5030512;28;20033;-78
2022/09/16 09:19:24;;;;;;;17.95;1.95;;;;;;;13.78;78.12;101146.94;5037932;28;20088;-80
2022/09/16 09:22:15;;;;;;;8.00;1.52;;;;;;;13.53;81.13;101145.66;5029035;28;20144;-82
2022/09/16 09:25:12;;;;;;;8.85;1.20;;;;;;;13.27;81.75;101146.25;5040935;28;20408;-83
2022/09/16 09:27:53;;;;;;;11.35;1.85;;;;;;;13.17;83.27;101143.84;5031986;28;20041;-83
2022/09/16 09:30:23;;;;;;;14.68;1.30;;;;;;;13.15;83.20;101137.78;5005594;28;20033;-83
2022/09/16 09:32:56;;;;;;;18.13;1.50;;;;;;;13.20;84.35;101140.75;5009529;28;20045;-81
2022/09/16 09:35:39;;;;;;;12.32;1.38;;;;;;;13.47;87.15;101141.06;5019177;28;20035;-83
2022/09/16 09:38:28;;;;;;;14.05;1.67;;;;;;;14.12;82.85;101133.66;5032238;28;20036;-83
2022/09/16 09:40:59;;;;;;;23.23;2.20;;;;;;;14.88;81.87;101134.50;5000888;28;20026;-84
2022/09/16 09:43:31;;;;;;;19.40;1.73;;;;;;;15.63;79.63;101133.59;5020381;28;20377;-85
2022/09/16 09:46:14;;;;;;;30.33;1.50;;;;;;;16.43;77.76;101135.19;5006438;28;20057;-83
2022/09/16 09:48:47;;;;;;;23.83;2.13;;;;;;;16.80;72.96;101129.25;5011891;28;20044;-81
2022/09/16 09:51:24;;;;;;;14.50;1.33;;;;;;;16.77;71.88;101124.19;5010399;28;20035;-80
2022/09/16 09:53:56;;;;;;;16.42;1.30;;;;;;;16.77;70.98;101138.69;5038696;28;20032;-79
2022/09/16 09:56:29;;;;;;;14.85;1.63;;;;;;;16.53;69.10;101137.44;5016159;28;20629;-80
2022/09/16 09:59:13;;;;;;;29.15;1.80;;;;;;;16.52;68.13;101130.34;5012328;28;20093;-81
2022/09/16 10:01:38;;;;;;;22.40;1.70;;;;;;;16.15;67.61;101130.03;5038624;28;20041;-83
2022/09/16 10:04:11;;;;;;;21.35;1.95;;;;;;;15.94;67.84;101128.41;5034191;28;20108;-82
2022/09/16 10:06:37;;;;;;;15.48;2.90;;;;;;;15.80;68.93;101130.28;5020112;28;20026;-81
2022/09/16 10:09:03;;;;;;;24.95;2.47;;;;;;;15.71;70.74;101125.28;5030409;28;20028;-81
2022/09/16 10:11:30;;;;;;;10.07;1.27;;;;;;;15.55;72.79;101121.06;5009568;28;20516;-81
2022/09/16 10:13:58;;;;;;;12.45;1.63;;;;;;;15.45;71.15;101121.47;5024000;28;20041;-79
2022/09/16 10:16:26;;;;;;;9.82;1.10;;;;;;;15.20;68.22;101115.00;5035708;28;20033;-80
2022/09/16 10:18:56;;;;;;;;;;;;;;;15.00;68.29;101118.47;5016404;28;20025;-80
2022/09/16 10:21:21;;;;;;;14.88;0.90;;;;;;;14.90;69.29;101120.72;5034977;28;19916;-82
2022/09/16 10:23:56;;;;;;;17.00;1.58;;;;;;;14.85;70.45;101123.22;5010354;28;20457;-81
2022/09/16 10:26:27;;;;;;;25.85;2.05;;;;;;;15.10;71.18;101121.63;5049662;28;20036;-80
2022/09/16 10:28:59;;;;;;;19.00;1.58;;;;;;;15.31;71.82;101117.91;5009430;28;20183;-79
2022/09/16 10:31:29;;;;;;;13.15;1.13;;;;;;;15.49;67.97;101122.75;5017745;28;20035;-81
2022/09/16 10:33:54;;;;;;;8.48;1.23;;;;;;;15.62;67.87;101111.06;4996664;28;20487;-80
2022/09/16 10:36:22;;;;;;;11.95;1.17;;;;;;;15.62;68.60;101107.53;5004420;28;20053;-80
2022/09/16 10:38:52;;;;;;;14.63;1.40;;;;;;;15.71;65.07;101117.13;5039968;28;20021;-79
2022/09/16 10:41:22;;;;;;;12.45;1.10;;;;;;;15.71;64.49;101119.84;5004378;28;20022;-80
2022/09/16 10:44:02;;;;;;;10.48;1.20;;;;;;;15.84;64.72;101108.16;5028433;28;20034;-79
2022/09/16 10:46:28;;;;;;;17.80;1.58;;;;;;;15.86;64.09;101112.34;5033395;28;20029;-80
2022/09/16 10:48:58;;;;;;;12.82;1.42;;;;;;;15.92;63.38;101107.94;5033129;28;20136;-79
2022/09/16 10:51:27;;;;;;;12.73;1.33;;;;;;;16.04;63.57;101110.84;5032843;28;20025;-80
2022/09/16 10:53:58;;;;;;;7.28;1.00;;;;;;;16.06;63.24;101109.59;5035790;28;20030;-78
2022/09/16 10:56:30;;;;;;;16.30;1.30;;;;;;;16.18;64.24;101115.19;5020415;28;20030;-77
2022/09/16 10:59:08;;;;;;;15.40;1.55;;;;;;;16.15;62.92;101112.91;5040772;28;20045;-77
2022/09/16 11:01:46;;;;;;;9.43;1.58;;;;;;;16.10;62.41;101110.84;5042362;28;20040;-77
2022/09/16 11:04:30;;;;;;;4.95;1.00;;;;;;;16.22;60.67;101122.72;5042708;28;20030;-76
2022/09/16 11:07:05;;;;;;;15.52;1.98;;;;;;;16.42;60.23;101133.53;5023008;28;20103;-76
2022/09/16 11:09:43;;;;;;;12.45;1.17;;;;;;;16.76;59.59;101138.84;5044428;28;20073;-76
2022/09/16 11:12:22;;;;;;;13.18;1.65;;;;;;;16.90;56.95;101132.31;5041549;28;20054;-76
2022/09/16 11:14:59;;;;;;;10.23;1.05;;;;;;;17.22;54.84;101124.19;5040468;28;20044;-76
2022/09/16 11:17:27;;;;;;;12.05;1.65;;;;;;;17.79;56.99;101125.06;5046438;28;20026;-76
2022/09/16 11:20:21;;;;;;;13.05;1.83;;;;;;;18.25;54.37;101128.41;5047677;28;20060;-77
2022/09/16 11:22:54;;;;;;;12.38;1.42;;;;;;;18.65;52.77;101135.06;5055866;28;20081;-78
2022/09/16 11:25:32;;;;;;;12.57;1.50;;;;;;;19.11;52.76;101131.97;5009596;28;20033;-76
2022/09/16 11:28:01;;;;;;;13.95;1.40;;;;;;;19.77;51.24;101141.06;5009997;28;20036;-75
2022/09/16 11:30:27;;;;;;;8.57;1.65;;;;;;;19.68;50.51;101138.69;5032830;28;20444;-77
2022/09/16 11:33:11;;;;;;;9.73;1.52;;;;;;;19.41;51.75;101138.25;5045533;28;20081;-76
2022/09/16 11:35:46;;;;;;;17.35;1.80;;;;;;;19.15;52.67;101150.38;5041843;28;20018;-76